Time;durP1;ratioP1;P1;durP2;ratioP2;P2;SDS_P1;SDS_P2;PMS_P1;PMS_P2;Temp;Humidity;BMP_temperature;BMP_pressure;BME280_temperature;BME280_humidity;BME280_pressure;Samples;Min_cycle;Max_cycle;Signal;HPM_P1;HPM_P2
2023/06/03 00:01:40;0.00;0.00;0.62;0.00;0.00;0.62;2.97;1.43;;;25.50;19.60;;;;;;2262481;61;20404;-66
2023/06/03 00:04:30;0.00;0.00;0.62;0.00;0.00;0.62;1.87;1.20;;;25.50;19.60;;;;;;2262772;61;20770;-66
2023/06/03 00:07:15;0.00;0.00;0.62;0.00;0.00;0.62;1.60;1.10;;;25.50;19.60;;;;;;2263094;61;20357;-67
2023/06/03 00:09:59;0.00;0.00;0.62;0.00;0.00;0.62;1.90;1.40;;;25.50;19.60;;;;;;2262941;61;20353;-67
2023/06/03 00:12:45;0.00;0.00;0.62;0.00;0.00;0.62;1.70;1.10;;;25.50;19.60;;;;;;2262608;61;20994;-65
2023/06/03 00:15:30;0.00;0.00;0.62;0.00;0.00;0.62;1.87;1.30;;;25.50;19.60;;;;;;2262921;61;20360;-66
2023/06/03 00:18:15;0.00;0.00;0.62;0.00;0.00;0.62;1.70;1.30;;;25.50;19.60;;;;;;2262928;61;20368;-66
2023/06/03 00:21:02;0.00;0.00;0.62;0.00;0.00;0.62;1.70;1.10;;;25.40;19.60;;;;;;2262551;61;20416;-66
2023/06/03 00:23:48;0.00;0.00;0.62;0.00;0.00;0.62;2.87;1.30;;;25.40;19.60;;;;;;2262715;61;20380;-67
2023/06/03 00:26:32;0.00;0.00;0.62;0.00;0.00;0.62;1.60;1.20;;;25.40;19.60;;;;;;2262722;61;20359;-67
2023/06/03 00:29:19;0.00;0.00;0.62;0.00;0.00;0.62;1.70;1.20;;;25.40;19.60;;;;;;2262240;61;20404;-66
2023/06/03 00:32:05;0.00;0.00;0.62;0.00;0.00;0.62;1.80;1.13;;;25.40;19.60;;;;;;2262853;61;20420;-66
2023/06/03 00:34:50;0.00;0.00;0.62;0.00;0.00;0.62;1.60;0.97;;;25.40;19.60;;;;;;2263661;61;20423;-66
2023/06/03 00:37:36;0.00;0.00;0.62;0.00;0.00;0.62;1.80;1.30;;;25.40;19.60;;;;;;2263865;61;20416;-67
2023/06/03 00:40:21;0.00;0.00;0.62;0.00;0.00;0.62;2.07;1.23;;;25.40;19.60;;;;;;2262399;61;20913;-66
2023/06/03 00:43:05;0.00;0.00;0.62;0.00;0.00;0.62;1.67;1.27;;;25.40;19.60;;;;;;2263243;61;20364;-67
2023/06/03 00:45:50;0.00;0.00;0.62;0.00;0.00;0.62;1.83;1.23;;;25.40;19.60;;;;;;2263192;61;20372;-67
2023/06/03 00:48:35;0.00;0.00;0.62;0.00;0.00;0.62;1.63;1.13;;;25.40;19.60;;;;;;2263352;61;20400;-67
2023/06/03 00:51:21;0.00;0.00;0.62;0.00;0.00;0.62;2.73;1.30;;;25.40;19.60;;;;;;2263533;61;20404;-65
2023/06/03 00:54:07;0.00;0.00;0.62;0.00;0.00;0.62;1.73;1.23;;;25.40;19.60;;;;;;2263764;61;20796;-66
2023/06/03 00:56:53;0.00;0.00;0.62;0.00;0.00;0.62;2.00;1.10;;;25.40;19.60;;;;;;2263640;61;20365;-66
2023/06/03 00:59:38;0.00;0.00;0.62;0.00;0.00;0.62;2.43;1.37;;;25.40;19.60;;;;;;2263873;61;20855;-67
2023/06/03 01:02:23;0.00;0.00;0.62;0.00;0.00;0.62;1.97;1.40;;;25.30;19.50;;;;;;2262950;61;20464;-66
2023/06/03 01:05:09;0.00;0.00;0.62;0.00;0.00;0.62;2.53;1.43;;;25.30;19.50;;;;;;2263273;61;20411;-67
2023/06/03 01:08:04;0.00;0.00;0.62;0.00;0.00;0.62;2.47;1.53;;;25.30;19.50;;;;;;2263644;61;20357;-67
2023/06/03 01:11:01;0.00;0.00;0.62;0.00;0.00;0.62;3.03;2.10;;;25.30;19.50;;;;;;2262362;61;20385;-66
2023/06/03 01:13:53;0.00;0.00;0.62;0.00;0.00;0.62;3.47;2.30;;;25.30;19.50;;;;;;2263572;61;20380;-66
2023/06/03 01:16:44;0.00;0.00;0.62;0.00;0.00;0.62;3.63;2.77;;;25.30;19.50;;;;;;2263323;61;20384;-66
2023/06/03 01:19:50;0.00;0.00;0.62;0.00;0.00;0.62;4.93;3.70;;;25.30;19.50;;;;;;2263852;61;20483;-66
2023/06/03 01:22:42;0.00;0.00;0.62;0.00;0.00;0.62;5.27;3.97;;;25.30;19.50;;;;;;2263413;61;20385;-66
2023/06/03 01:25:29;0.00;0.00;0.62;0.00;0.00;0.62;5.40;4.47;;;25.30;19.50;;;;;;2263594;61;20470;-66
2023/06/03 01:28:13;0.00;0.00;0.62;0.00;0.00;0.62;5.97;4.13;;;25.30;19.50;;;;;;2262960;61;20967;-67
2023/06/03 01:31:01;0.00;0.00;0.62;0.00;0.00;0.62;6.40;4.50;;;25.20;19.50;;;;;;2263039;61;20477;-67
2023/06/03 01:33:46;0.00;0.00;0.62;0.00;0.00;0.62;5.80;4.47;;;25.20;19.50;;;;;;2263349;61;20364;-66
2023/06/03 01:36:32;0.00;0.00;0.62;0.00;0.00;0.62;5.30;4.50;;;25.20;19.50;;;;;;2263028;61;20412;-66
2023/06/03 01:39:18;0.00;0.00;0.62;0.00;0.00;0.62;5.40;4.30;;;25.20;19.50;;;;;;2262774;61;20427;-66
2023/06/03 01:42:06;0.00;0.00;0.62;0.00;0.00;0.62;4.40;3.77;;;25.20;19.50;;;;;;2262550;61;20380;-65
2023/06/03 01:44:53;0.00;0.00;0.62;0.00;0.00;0.62;4.70;4.10;;;25.20;19.50;;;;;;2263456;61;20365;-66
2023/06/03 01:47:37;0.00;0.00;0.62;0.00;0.00;0.62;4.10;3.40;;;25.20;19.50;;;;;;2263408;61;20920;-66
2023/06/03 01:50:23;0.00;0.00;0.62;0.00;0.00;0.62;4.53;3.50;;;25.20;19.50;;;;;;2263087;61;20357;-67
2023/06/03 01:53:08;0.00;0.00;0.62;0.00;0.00;0.62;4.80;3.80;;;25.20;19.50;;;;;;2262857;61;20452;-67
2023/06/03 01:55:53;0.00;0.00;0.62;0.00;0.00;0.62;4.00;3.23;;;25.20;19.50;;;;;;2260870;61;20360;-71
2023/06/03 01:58:39;0.00;0.00;0.62;0.00;0.00;0.62;4.87;3.93;;;25.20;19.50;;;;;;2260859;61;20389;-66
2023/06/03 02:01:24;0.00;0.00;0.62;0.00;0.00;0.62;3.63;3.30;;;25.20;19.50;;;;;;2259982;61;20980;-67
2023/06/03 02:04:09;0.00;0.00;0.62;0.00;0.00;0.62;4.80;3.57;;;25.20;20.10;;;;;;2260463;61;20388;-66
2023/06/03 02:06:55;0.00;0.00;0.62;0.00;0.00;0.62;4.00;3.30;;;25.20;19.60;;;;;;2260347;61;20364;-67
2023/06/03 02:09:41;0.00;0.00;0.62;0.00;0.00;0.62;3.40;2.73;;;25.10;19.50;;;;;;2260231;61;20449;-69
2023/06/03 02:12:26;0.00;0.00;0.62;0.00;0.00;0.62;3.60;2.83;;;25.20;19.60;;;;;;2260158;61;20427;-67
2023/06/03 02:15:13;0.00;0.00;0.62;0.00;0.00;0.62;3.43;2.50;;;25.10;20.00;;;;;;2257569;61;20364;-67
2023/06/03 02:17:59;0.00;0.00;0.62;0.00;0.00;0.62;3.60;2.77;;;25.10;19.50;;;;;;2260728;61;20787;-66
2023/06/03 02:20:45;0.00;0.00;0.62;0.00;0.00;0.62;3.00;2.10;;;25.10;19.50;;;;;;2260383;61;20812;-68
2023/06/03 02:23:31;0.00;0.00;0.62;0.00;0.00;0.62;4.90;2.67;;;25.10;19.50;;;;;;2260389;61;20345;-67
2023/06/03 02:26:17;0.00;0.00;0.62;0.00;0.00;0.62;2.90;2.13;;;25.10;19.50;;;;;;2260726;61;20391;-69
2023/06/03 02:29:02;0.00;0.00;0.62;0.00;0.00;0.62;2.80;2.17;;;25.10;19.50;;;;;;2260315;61;20364;-67
2023/06/03 02:31:49;0.00;0.00;0.62;0.00;0.00;0.62;3.93;2.10;;;25.10;19.50;;;;;;2260289;61;20396;-67
2023/06/03 02:34:34;0.00;0.00;0.62;0.00;0.00;0.62;3.37;2.20;;;25.10;19.60;;;;;;2260546;61;20870;-66
2023/06/03 02:37:18;0.00;0.00;0.62;0.00;0.00;0.62;3.50;2.60;;;25.10;19.50;;;;;;2260346;61;20449;-67
2023/06/03 02:40:05;0.00;0.00;0.62;0.00;0.00;0.62;2.93;2.23;;;25.10;19.50;;;;;;2260264;61;20388;-67
2023/06/03 02:42:50;0.00;0.00;0.62;0.00;0.00;0.62;1.90;1.50;;;25.10;19.50;;;;;;2260095;61;20802;-67
2023/06/03 02:45:35;0.00;0.00;0.62;0.00;0.00;0.62;2.50;1.80;;;25.00;19.50;;;;;;2260618;61;20365;-66
2023/06/03 02:48:21;0.00;0.00;0.62;0.00;0.00;0.62;2.27;1.50;;;25.00;19.50;;;;;;2260128;61;20808;-67
2023/06/03 02:51:06;0.00;0.00;0.62;0.00;0.00;0.62;2.60;1.73;;;25.00;19.50;;;;;;2260426;61;20955;-66
2023/06/03 02:53:51;0.00;0.00;0.62;0.00;0.00;0.62;2.23;1.77;;;25.00;19.50;;;;;;2259893;61;20678;-66
2023/06/03 02:56:35;0.00;0.00;0.62;0.00;0.00;0.62;2.70;1.43;;;25.00;19.50;;;;;;2259918;61;20454;-66
2023/06/03 02:59:21;0.00;0.00;0.62;0.00;0.00;0.62;2.50;1.77;;;25.00;19.60;;;;;;2260048;61;20401;-67
2023/06/03 03:02:06;0.00;0.00;0.62;0.00;0.00;0.62;3.33;1.70;;;25.00;19.50;;;;;;2259832;61;20965;-67
2023/06/03 03:04:52;0.00;0.00;0.62;0.00;0.00;0.62;2.20;1.50;;;25.00;19.60;;;;;;2259901;61;20449;-67
2023/06/03 03:07:37;0.00;0.00;0.62;0.00;0.00;0.62;2.73;1.70;;;25.00;20.10;;;;;;2260384;61;20369;-66
2023/06/03 03:10:22;0.00;0.00;0.62;0.00;0.00;0.62;2.43;1.77;;;25.00;19.60;;;;;;2259610;61;20373;-67
2023/06/03 03:13:07;0.00;0.00;0.62;0.00;0.00;0.62;2.60;2.30;;;25.00;19.60;;;;;;2260275;61;20362;-67
2023/06/03 03:15:52;0.00;0.00;0.62;0.00;0.00;0.62;2.97;1.80;;;25.00;19.60;;;;;;2260016;61;20353;-67
2023/06/03 03:18:38;0.00;0.00;0.62;0.00;0.00;0.62;2.90;1.80;;;25.00;19.60;;;;;;2260030;61;20442;-66
2023/06/03 03:21:26;0.00;0.00;0.62;0.00;0.00;0.62;2.83;2.00;;;24.90;19.50;;;;;;2259664;61;20396;-69
2023/06/03 03:24:11;0.00;0.00;0.62;0.00;0.00;0.62;2.70;1.50;;;24.90;19.50;;;;;;2260101;61;21020;-68
2023/06/03 03:26:57;0.00;0.00;0.62;0.00;0.00;0.62;2.53;1.80;;;24.90;19.50;;;;;;2260060;61;20445;-66
2023/06/03 03:29:46;0.00;0.00;0.62;0.00;0.00;0.62;2.57;1.77;;;24.90;19.60;;;;;;2259916;61;20361;-66
2023/06/03 03:32:34;0.00;0.00;0.62;0.00;0.00;0.62;2.67;1.93;;;24.90;19.50;;;;;;2260579;61;20847;-67
2023/06/03 03:35:21;0.00;0.00;0.62;0.00;0.00;0.62;2.13;1.57;;;24.90;19.50;;;;;;2260531;61;20348;-66
2023/06/03 03:38:11;0.00;0.00;0.62;0.00;0.00;0.62;2.00;1.50;;;24.90;19.60;;;;;;2260058;61;20349;-67
2023/06/03 03:40:57;0.00;0.00;0.62;0.00;0.00;0.62;2.70;1.60;;;24.90;19.50;;;;;;2259870;61;20404;-66
2023/06/03 03:43:43;0.00;0.00;0.62;0.00;0.00;0.62;2.17;1.40;;;24.90;19.50;;;;;;2260148;61;20341;-67
2023/06/03 03:46:28;0.00;0.00;0.62;0.00;0.00;0.62;2.93;1.83;;;24.90;19.60;;;;;;2260496;61;20349;-64
2023/06/03 03:49:20;0.00;0.00;0.62;0.00;0.00;0.62;2.37;1.80;;;24.90;19.60;;;;;;2260507;61;20353;-67
2023/06/03 03:52:05;0.00;0.00;0.62;0.00;0.00;0.62;2.87;1.63;;;24.80;19.50;;;;;;2260250;61;20423;-67
2023/06/03 03:54:54;0.00;0.00;0.62;0.00;0.00;0.62;1.60;1.20;;;24.80;19.50;;;;;;2260270;61;20407;-71
2023/06/03 03:57:41;0.00;0.00;0.62;0.00;0.00;0.62;2.10;1.60;;;24.80;19.50;;;;;;2260633;61;20396;-67
2023/06/03 04:00:28;0.00;0.00;0.62;0.00;0.00;0.62;2.20;1.40;;;24.80;19.50;;;;;;2259854;61;20431;-68
2023/06/03 04:03:13;0.00;0.00;0.62;0.00;0.00;0.62;2.63;1.37;;;24.80;19.50;;;;;;2259983;61;20915;-67
2023/06/03 04:05:58;0.00;0.00;0.62;0.00;0.00;0.62;2.20;1.60;;;24.80;19.50;;;;;;2260446;61;20353;-67
2023/06/03 04:08:47;0.00;0.00;0.62;0.00;0.00;0.62;2.10;1.33;;;24.80;19.50;;;;;;2260522;61;20462;-67
2023/06/03 04:11:37;0.00;0.00;0.62;0.00;0.00;0.62;2.13;1.43;;;24.80;19.60;;;;;;2260472;61;20415;-66
2023/06/03 04:14:44;0.00;0.00;0.62;0.00;0.00;0.62;4.80;1.47;;;24.80;19.60;;;;;;2260536;61;20400;-70
2023/06/03 04:17:30;0.00;0.00;0.62;0.00;0.00;0.62;1.87;1.27;;;24.80;19.50;;;;;;2261065;61;20453;-66
2023/06/03 04:20:38;0.00;0.00;0.62;0.00;0.00;0.62;2.10;1.30;;;24.80;19.50;;;;;;2260357;61;20412;-67
2023/06/03 04:23:26;0.00;0.00;0.62;0.00;0.00;0.62;1.90;1.40;;;24.80;19.50;;;;;;2260651;61;20341;-66
2023/06/03 04:26:15;0.00;0.00;0.62;0.00;0.00;0.62;2.17;1.37;;;24.80;19.50;;;;;;2260730;61;20893;-66
2023/06/03 04:29:02;0.00;0.00;0.62;0.00;0.00;0.62;2.43;1.67;;;24.80;19.60;;;;;;2260534;61;20396;-67
2023/06/03 04:31:48;0.00;0.00;0.62;0.00;0.00;0.62;1.93;1.20;;;24.80;19.50;;;;;;2260254;61;20396;-67
2023/06/03 04:34:33;0.00;0.00;0.62;0.00;0.00;0.62;1.83;1.30;;;24.70;19.50;;;;;;2260663;61;20400;-67
2023/06/03 04:37:21;0.00;0.00;0.62;0.00;0.00;0.62;1.97;1.37;;;24.80;19.50;;;;;;2263310;61;20365;-67
2023/06/03 04:40:10;0.00;0.00;0.62;0.00;0.00;0.62;1.90;1.30;;;24.70;19.50;;;;;;2260540;61;20385;-67
2023/06/03 04:42:55;0.00;0.00;0.62;0.00;0.00;0.62;1.73;1.10;;;24.70;19.50;;;;;;2260631;61;21030;-67
2023/06/03 04:45:45;0.00;0.00;0.62;0.00;0.00;0.62;2.50;1.60;;;24.70;19.50;;;;;;2260685;61;20401;-67
2023/06/03 04:48:30;0.00;0.00;0.62;0.00;0.00;0.62;2.60;1.33;;;24.70;19.50;;;;;;2260763;61;20905;-66
2023/06/03 04:51:15;0.00;0.00;0.62;0.00;0.00;0.62;2.33;1.40;;;24.70;19.50;;;;;;2260315;61;20411;-67
2023/06/03 04:54:03;0.00;0.00;0.62;0.00;0.00;0.62;2.10;1.50;;;24.70;19.50;;;;;;2260498;61;20364;-67
2023/06/03 04:56:49;0.00;0.00;0.62;0.00;0.00;0.62;2.37;1.40;;;24.70;19.50;;;;;;2260537;61;20365;-66
2023/06/03 04:59:34;0.00;0.00;0.62;0.00;0.00;0.62;2.10;1.53;;;24.70;19.50;;;;;;2260301;61;20369;-67
2023/06/03 05:02:23;0.00;0.00;0.62;0.00;0.00;0.62;2.30;1.63;;;24.70;19.40;;;;;;2260321;61;20419;-67
2023/06/03 05:05:09;0.00;0.00;0.62;0.00;0.00;0.62;2.10;1.73;;;24.70;19.40;;;;;;2260619;61;20427;-66
2023/06/03 05:07:54;0.00;0.00;0.62;0.00;0.00;0.62;2.90;1.70;;;24.70;19.50;;;;;;2260371;61;20364;-68
2023/06/03 05:10:39;0.00;0.00;0.62;0.00;0.00;0.62;2.47;1.60;;;24.70;19.40;;;;;;2260223;61;20372;-67
2023/06/03 05:13:25;0.00;0.00;0.62;0.00;0.00;0.62;2.10;1.63;;;24.70;19.40;;;;;;2260473;61;20358;-66
2023/06/03 05:16:11;0.00;0.00;0.62;0.00;0.00;0.62;2.50;1.87;;;24.70;19.40;;;;;;2260238;61;20732;-66
2023/06/03 05:18:57;0.00;0.00;0.62;0.00;0.00;0.62;2.20;1.80;;;24.70;19.40;;;;;;2260490;61;20357;-67
2023/06/03 05:21:41;0.00;0.00;0.62;0.00;0.00;0.62;3.17;1.80;;;24.70;19.40;;;;;;2260203;61;20916;-68
2023/06/03 05:24:27;0.00;0.00;0.62;0.00;0.00;0.62;2.23;1.67;;;24.70;19.40;;;;;;2260418;61;20898;-67
2023/06/03 05:27:11;0.00;0.00;0.62;0.00;0.00;0.62;2.83;1.70;;;24.70;19.40;;;;;;2260509;61;20341;-67
2023/06/03 05:29:56;0.00;0.00;0.62;0.00;0.00;0.62;2.90;2.33;;;24.60;19.40;;;;;;2260300;61;20365;-67
2023/06/03 05:32:41;0.00;0.00;0.62;0.00;0.00;0.62;2.43;1.93;;;24.60;19.40;;;;;;2260831;61;20389;-65
2023/06/03 05:35:28;0.00;0.00;0.62;0.00;0.00;0.62;2.50;1.80;;;24.60;19.40;;;;;;2262123;61;20404;-65
2023/06/03 05:38:13;0.00;0.00;0.62;0.00;0.00;0.62;3.33;2.27;;;24.60;19.40;;;;;;2263090;61;20373;-66
2023/06/03 05:40:59;0.00;0.00;0.62;0.00;0.00;0.62;3.00;2.07;;;24.60;19.40;;;;;;2259654;61;20392;-67
2023/06/03 05:43:45;0.00;0.00;0.62;0.00;0.00;0.62;2.60;1.80;;;24.60;19.40;;;;;;2263020;61;20388;-66
2023/06/03 05:46:30;0.00;0.00;0.62;0.00;0.00;0.62;2.50;1.70;;;24.60;19.40;;;;;;2263552;61;20361;-66
2023/06/03 05:49:14;0.00;0.00;0.62;0.00;0.00;0.62;5.20;2.10;;;24.60;19.40;;;;;;2263187;61;20380;-65
2023/06/03 05:52:00;0.00;0.00;0.62;0.00;0.00;0.62;2.40;1.90;;;24.60;19.40;;;;;;2263099;61;20389;-67
2023/06/03 05:54:46;0.00;0.00;0.62;0.00;0.00;0.62;3.00;1.80;;;24.70;19.40;;;;;;2263296;61;20793;-66
2023/06/03 05:57:31;0.00;0.00;0.62;0.00;0.00;0.62;2.83;2.00;;;24.60;19.40;;;;;;2262979;61;20369;-66
2023/06/03 06:00:17;0.00;0.00;0.62;0.00;0.00;0.62;2.00;1.67;;;24.60;19.40;;;;;;2262846;61;20393;-67
2023/06/03 06:03:01;0.00;0.00;0.62;0.00;0.00;0.62;2.10;1.60;;;24.60;19.30;;;;;;2263449;61;20841;-67
2023/06/03 06:05:46;0.00;0.00;0.62;0.00;0.00;0.62;1.93;1.43;;;24.60;19.30;;;;;;2265565;61;20546;-67
2023/06/03 06:08:33;0.00;0.00;0.62;0.00;0.00;0.62;2.10;1.50;;;24.60;19.30;;;;;;2262983;61;20775;-66
2023/06/03 06:11:19;0.00;0.00;0.62;0.00;0.00;0.62;2.10;1.60;;;24.60;19.30;;;;;;2262582;61;20694;-65
2023/06/03 06:14:04;0.00;0.00;0.62;0.00;0.00;0.62;2.27;1.60;;;24.60;19.30;;;;;;2263048;61;20373;-67
2023/06/03 06:16:51;0.00;0.00;0.62;0.00;0.00;0.62;2.90;1.70;;;24.60;19.30;;;;;;2263096;61;20404;-67
2023/06/03 06:19:36;0.00;0.00;0.62;0.00;0.00;0.62;2.63;1.70;;;24.60;19.30;;;;;;2262971;61;20886;-66
2023/06/03 06:22:21;0.00;0.00;0.62;0.00;0.00;0.62;2.40;1.53;;;24.60;19.30;;;;;;2261464;61;20389;-66
2023/06/03 06:25:10;0.00;0.00;0.62;0.00;0.00;0.62;2.40;1.60;;;24.60;19.30;;;;;;2260718;61;20877;-67
2023/06/03 06:27:55;0.00;0.00;0.62;0.00;0.00;0.62;2.00;1.20;;;24.60;19.30;;;;;;2259696;61;20791;-66
2023/06/03 06:30:39;0.00;0.00;0.62;0.00;0.00;0.62;1.87;1.47;;;24.60;19.30;;;;;;2259820;61;20424;-66
2023/06/03 06:33:24;0.00;0.00;0.62;0.00;0.00;0.62;2.20;1.40;;;24.60;19.20;;;;;;2260418;61;20368;-66
2023/06/03 06:36:27;0.00;0.00;0.62;0.00;0.00;0.62;1.93;1.17;;;24.60;19.30;;;;;;2259847;61;20422;-67
2023/06/03 06:39:48;0.00;0.00;0.62;0.00;0.00;0.62;2.20;1.80;;;24.60;19.30;;;;;;2259883;61;20396;-67
2023/06/03 06:42:50;0.00;0.00;0.62;0.00;0.00;0.62;2.40;1.50;;;24.60;19.30;;;;;;2260192;61;20371;-67
2023/06/03 06:45:56;0.00;0.00;0.62;0.00;0.00;0.62;1.90;1.50;;;24.60;19.30;;;;;;2258667;61;20377;-66
2023/06/03 06:48:41;0.00;0.00;0.62;0.00;0.00;0.62;2.80;1.43;;;24.60;19.30;;;;;;2260360;61;20817;-66
2023/06/03 06:51:29;0.00;0.00;0.62;0.00;0.00;0.62;1.60;1.30;;;24.60;19.20;;;;;;2259717;61;20396;-66
2023/06/03 06:54:16;0.00;0.00;0.62;0.00;0.00;0.62;1.97;1.30;;;24.60;19.20;;;;;;2260348;61;20345;-67
2023/06/03 06:57:01;0.00;0.00;0.62;0.00;0.00;0.62;1.80;1.20;;;24.60;19.20;;;;;;2260132;61;20437;-67
2023/06/03 06:59:47;0.00;0.00;0.62;0.00;0.00;0.62;1.87;1.10;;;24.60;19.20;;;;;;2260210;61;20939;-68
2023/06/03 07:02:32;0.00;0.00;0.62;0.00;0.00;0.62;1.90;1.30;;;24.60;19.20;;;;;;2260549;61;20396;-68
2023/06/03 07:05:17;0.00;0.00;0.62;0.00;0.00;0.62;2.77;1.60;;;24.60;19.20;;;;;;2260105;61;20372;-66
2023/06/03 07:08:02;0.00;0.00;0.62;0.00;0.00;0.62;2.13;1.27;;;24.60;19.10;;;;;;2260284;61;20365;-67
2023/06/03 07:10:49;0.00;0.00;0.62;0.00;0.00;0.62;2.13;1.40;;;24.60;19.10;;;;;;2259998;61;20401;-67
2023/06/03 07:13:34;0.00;0.00;0.62;0.00;0.00;0.62;2.67;1.50;;;24.60;19.10;;;;;;2260130;61;20896;-67
2023/06/03 07:16:22;0.00;0.00;0.62;0.00;0.00;0.62;2.90;1.30;;;24.60;19.10;;;;;;2260139;61;20682;-67
2023/06/03 07:19:07;0.00;0.00;0.62;0.00;0.00;0.62;1.77;1.07;;;24.60;19.10;;;;;;2260070;61;20396;-66
2023/06/03 07:21:57;0.00;0.00;0.62;0.00;0.00;0.62;1.77;1.07;;;24.60;19.10;;;;;;2259682;61;20991;-66
2023/06/03 07:24:43;0.00;0.00;0.62;0.00;0.00;0.62;1.83;0.93;;;24.60;19.00;;;;;;2259753;61;20361;-66
2023/06/03 07:27:28;0.00;0.00;0.62;0.00;0.00;0.62;1.70;0.90;;;24.60;19.00;;;;;;2260445;61;20396;-66
2023/06/03 07:30:16;0.00;0.00;0.62;0.00;0.00;0.62;1.60;1.07;;;24.60;19.00;;;;;;2259906;61;20345;-67
2023/06/03 07:33:05;0.00;0.00;0.62;0.00;0.00;0.62;1.70;1.00;;;24.60;19.00;;;;;;2260143;61;20361;-66
2023/06/03 07:35:52;0.00;0.00;0.62;0.00;0.00;0.62;1.67;0.90;;;24.60;19.00;;;;;;2260602;61;20480;-66
2023/06/03 07:38:56;0.00;0.00;0.62;0.00;0.00;0.62;1.47;1.03;;;24.60;18.90;;;;;;2260712;61;20411;-66
2023/06/03 07:41:45;0.00;0.00;0.62;0.00;0.00;0.62;1.70;1.00;;;24.60;18.90;;;;;;2259752;61;20389;-67
2023/06/03 07:45:02;0.00;0.00;0.62;0.00;0.00;0.62;2.37;1.40;;;24.60;18.90;;;;;;2260329;61;20809;-67
2023/06/03 07:47:47;0.00;0.00;0.62;0.00;0.00;0.62;1.60;0.90;;;24.60;18.90;;;;;;2260532;61;20882;-67
2023/06/03 07:50:33;0.00;0.00;0.62;0.00;0.00;0.62;2.07;1.10;;;24.60;18.90;;;;;;2260366;61;20407;-67
2023/06/03 07:53:23;0.00;0.00;0.62;0.00;0.00;0.62;1.60;1.00;;;24.50;18.80;;;;;;2260619;61;20354;-67
2023/06/03 07:56:10;0.00;0.00;0.62;0.00;0.00;0.62;1.83;1.10;;;24.50;18.80;;;;;;2260375;61;20376;-67
2023/06/03 07:58:57;0.00;0.00;0.62;0.00;0.00;0.62;1.50;0.90;;;24.50;18.80;;;;;;2260452;61;20760;-66
2023/06/03 08:01:47;0.00;0.00;0.62;0.00;0.00;0.62;1.70;1.10;;;24.50;18.80;;;;;;2260286;61;20408;-66
2023/06/03 08:04:33;0.00;0.00;0.62;0.00;0.00;0.62;2.60;1.47;;;24.50;18.80;;;;;;2260550;61;20415;-66
2023/06/03 08:07:20;0.00;0.00;0.62;0.00;0.00;0.62;2.17;0.90;;;24.50;18.70;;;;;;2260518;61;20766;-67
2023/06/03 08:10:15;0.00;0.00;0.62;0.00;0.00;0.62;2.00;0.97;;;24.50;18.70;;;;;;2260543;61;20349;-67
2023/06/03 08:13:00;0.00;0.00;0.62;0.00;0.00;0.62;1.83;1.17;;;24.50;18.70;;;;;;2260427;61;20360;-66
2023/06/03 08:15:47;0.00;0.00;0.62;0.00;0.00;0.62;2.33;1.07;;;24.50;18.70;;;;;;2260493;61;20349;-66
2023/06/03 08:18:45;0.00;0.00;0.62;0.00;0.00;0.62;1.57;0.80;;;24.50;18.70;;;;;;2260338;61;20389;-67
2023/06/03 08:21:30;0.00;0.00;0.62;0.00;0.00;0.62;2.00;1.20;;;24.50;18.70;;;;;;2259743;61;20389;-66
2023/06/03 08:24:16;0.00;0.00;0.62;0.00;0.00;0.62;5.60;1.10;;;24.50;18.70;;;;;;2260327;61;20345;-66
2023/06/03 08:27:01;0.00;0.00;0.62;0.00;0.00;0.62;1.63;0.90;;;24.50;18.60;;;;;;2260327;61;20885;-66
2023/06/03 08:29:46;0.00;0.00;0.62;0.00;0.00;0.62;1.90;1.10;;;24.50;18.60;;;;;;2260495;61;20907;-66
2023/06/03 08:32:33;0.00;0.00;0.62;0.00;0.00;0.62;1.77;1.00;;;24.50;18.60;;;;;;2260402;61;20398;-66
2023/06/03 08:35:21;0.00;0.00;0.62;0.00;0.00;0.62;1.60;0.80;;;24.50;18.60;;;;;;2260419;61;20400;-67
2023/06/03 08:38:05;0.00;0.00;0.62;0.00;0.00;0.62;1.60;0.80;;;24.50;18.60;;;;;;2260674;61;20447;-66
2023/06/03 08:40:52;0.00;0.00;0.62;0.00;0.00;0.62;1.97;0.80;;;24.50;18.60;;;;;;2260240;61;20983;-67
2023/06/03 08:43:46;0.00;0.00;0.62;0.00;0.00;0.62;1.40;0.90;;;24.50;18.60;;;;;;2259909;61;20376;-66
2023/06/03 08:46:41;0.00;0.00;0.62;0.00;0.00;0.62;1.30;0.90;;;24.50;18.60;;;;;;2260527;61;20408;-66
2023/06/03 08:49:36;0.00;0.00;0.62;0.00;0.00;0.62;1.40;0.80;;;24.50;18.60;;;;;;2260557;61;20377;-67
2023/06/03 08:52:26;0.00;0.00;0.62;0.00;0.00;0.62;1.40;0.90;;;24.50;18.50;;;;;;2260675;61;20419;-66
2023/06/03 08:55:15;0.00;0.00;0.62;0.00;0.00;0.62;1.67;0.90;;;24.50;18.50;;;;;;2260910;61;20352;-68
2023/06/03 08:58:08;0.00;0.00;0.62;0.00;0.00;0.62;2.03;1.20;;;24.50;18.50;;;;;;2260964;61;20891;-68
2023/06/03 09:00:59;0.00;0.00;0.62;0.00;0.00;0.62;1.70;0.90;;;24.50;18.50;;;;;;2260775;61;20439;-68
2023/06/03 09:03:45;0.00;0.00;0.62;0.00;0.00;0.62;1.73;0.90;;;24.50;18.50;;;;;;2260769;61;20377;-67
2023/06/03 09:06:30;0.00;0.00;0.62;0.00;0.00;0.62;1.50;0.80;;;24.50;18.50;;;;;;2260518;61;20365;-67
2023/06/03 09:09:16;0.00;0.00;0.62;0.00;0.00;0.62;1.60;0.90;;;24.50;18.40;;;;;;2261125;61;20453;-67
2023/06/03 09:12:02;0.00;0.00;0.62;0.00;0.00;0.62;1.70;0.97;;;24.50;18.40;;;;;;2260635;61;20412;-67
2023/06/03 09:14:49;0.00;0.00;0.62;0.00;0.00;0.62;1.50;0.90;;;24.50;18.40;;;;;;2260979;61;20415;-67
2023/06/03 09:17:36;0.00;0.00;0.62;0.00;0.00;0.62;2.70;1.50;;;24.50;18.40;;;;;;2260303;61;20391;-67
2023/06/03 09:20:21;0.00;0.00;0.62;0.00;0.00;0.62;1.83;1.20;;;24.50;18.40;;;;;;2260722;61;20424;-67
2023/06/03 09:23:06;0.00;0.00;0.62;0.00;0.00;0.62;1.40;0.93;;;24.50;18.30;;;;;;2260858;61;20349;-67
2023/06/03 09:25:51;0.00;0.00;0.62;0.00;0.00;0.62;2.13;1.00;;;24.50;18.30;;;;;;2260823;61;20364;-68
2023/06/03 09:28:36;0.00;0.00;0.62;0.00;0.00;0.62;1.57;0.90;;;24.50;18.30;;;;;;2260864;61;20364;-66
2023/06/03 09:31:22;0.00;0.00;0.62;0.00;0.00;0.62;1.60;1.00;;;24.50;18.30;;;;;;2260410;61;20393;-67
2023/06/03 09:34:07;0.00;0.00;0.62;0.00;0.00;0.62;1.60;1.00;;;24.50;18.30;;;;;;2260690;61;20415;-68
2023/06/03 09:36:52;0.00;0.00;0.62;0.00;0.00;0.62;1.60;1.03;;;24.50;18.20;;;;;;2260949;61;20388;-67
2023/06/03 09:39:38;0.00;0.00;0.62;0.00;0.00;0.62;1.80;0.93;;;24.50;18.20;;;;;;2260818;61;21002;-67
2023/06/03 09:42:37;0.00;0.00;0.62;0.00;0.00;0.62;1.50;0.93;;;24.50;18.20;;;;;;2260605;61;20420;-71
2023/06/03 09:45:29;0.00;0.00;0.62;0.00;0.00;0.62;1.57;0.90;;;24.50;18.20;;;;;;2260678;61;20357;-68
2023/06/03 09:48:24;0.00;0.00;0.62;0.00;0.00;0.62;1.77;1.03;;;24.50;18.20;;;;;;2260658;61;20357;-67
2023/06/03 09:51:09;0.00;0.00;0.62;0.00;0.00;0.62;1.53;0.80;;;24.50;18.20;;;;;;2260382;61;20393;-67
2023/06/03 09:54:10;0.00;0.00;0.62;0.00;0.00;0.62;1.40;0.80;;;24.50;18.20;;;;;;2260075;61;20453;-67
2023/06/03 09:57:09;0.00;0.00;0.62;0.00;0.00;0.62;1.37;0.80;;;24.50;18.20;;;;;;2260401;61;20357;-66
2023/06/03 10:00:11;0.00;0.00;0.62;0.00;0.00;0.62;1.60;1.10;;;24.50;18.20;;;;;;2260619;61;20353;-67
2023/06/03 10:03:07;0.00;0.00;0.62;0.00;0.00;0.62;1.47;0.90;;;24.50;18.10;;;;;;2260202;61;20353;-68
2023/06/03 10:05:53;0.00;0.00;0.62;0.00;0.00;0.62;1.63;0.80;;;24.50;18.20;;;;;;2260839;61;20940;-67
2023/06/03 10:08:39;0.00;0.00;0.62;0.00;0.00;0.62;1.50;0.80;;;24.50;18.10;;;;;;2260214;61;20383;-68
2023/06/03 10:11:23;0.00;0.00;0.62;0.00;0.00;0.62;1.43;0.90;;;24.50;18.10;;;;;;2260797;61;20376;-68
2023/06/03 10:14:08;0.00;0.00;0.62;0.00;0.00;0.62;1.70;1.00;;;24.50;18.10;;;;;;2260741;61;20361;-68
2023/06/03 10:17:07;0.00;0.00;0.62;0.00;0.00;0.62;1.40;0.80;;;24.50;18.60;;;;;;2257382;61;20365;-67
2023/06/03 10:19:52;0.00;0.00;0.62;0.00;0.00;0.62;1.70;1.10;;;24.50;18.10;;;;;;2260774;61;20350;-68
2023/06/03 10:22:42;0.00;0.00;0.62;0.00;0.00;0.62;1.80;0.93;;;24.50;18.10;;;;;;2260733;61;20547;-68
2023/06/03 10:25:29;0.00;0.00;0.62;0.00;0.00;0.62;2.50;0.93;;;24.50;18.10;;;;;;2260481;61;20365;-68
2023/06/03 10:28:14;0.00;0.00;0.62;0.00;0.00;0.62;2.10;1.10;;;24.50;18.10;;;;;;2260765;61;20368;-68
2023/06/03 10:31:00;0.00;0.00;0.62;0.00;0.00;0.62;1.87;0.90;;;24.50;18.10;;;;;;2260616;61;20392;-69
2023/06/03 10:33:45;0.00;0.00;0.62;0.00;0.00;0.62;2.03;0.80;;;24.50;18.10;;;;;;2260753;61;20442;-68
2023/06/03 10:36:30;0.00;0.00;0.62;0.00;0.00;0.62;1.40;0.87;;;24.50;18.10;;;;;;2260762;61;20468;-68
2023/06/03 10:39:18;0.00;0.00;0.62;0.00;0.00;0.62;1.80;0.80;;;24.50;18.10;;;;;;2260630;61;20372;-68
2023/06/03 10:42:05;0.00;0.00;0.62;0.00;0.00;0.62;1.93;1.10;;;24.50;18.10;;;;;;2260264;61;20450;-68
2023/06/03 10:44:50;0.00;0.00;0.62;0.00;0.00;0.62;3.93;0.90;;;24.50;18.10;;;;;;2260634;61;20360;-68
2023/06/03 10:47:39;0.00;0.00;0.62;0.00;0.00;0.62;1.30;0.70;;;24.50;18.10;;;;;;2260399;61;20422;-71
2023/06/03 10:50:37;0.00;0.00;0.62;0.00;0.00;0.62;1.40;0.80;;;24.50;18.10;;;;;;2260383;61;20424;-69
2023/06/03 10:53:35;0.00;0.00;0.62;0.00;0.00;0.62;1.77;1.00;;;24.50;18.00;;;;;;2260736;61;20451;-68
2023/06/03 10:56:29;0.00;0.00;0.62;0.00;0.00;0.62;1.40;0.80;;;24.50;18.00;;;;;;2260636;61;20357;-69
2023/06/03 10:59:21;0.00;0.00;0.62;0.00;0.00;0.62;1.80;1.07;;;24.50;18.00;;;;;;2260652;61;20457;-65
2023/06/03 11:02:07;0.00;0.00;0.62;0.00;0.00;0.62;2.17;1.00;;;24.50;18.00;;;;;;2260064;61;20394;-68